地図

経路データ

SID SEASON NUMBER BASIN SUBBASIN NAME ISO_TIME NATURE LAT LON WMO_WIND WMO_PRES WMO_AGENCY TRACK_TYPE DIST2LAND LANDFALL IFLAG USA_AGENCY USA_ATCF_ID USA_LAT USA_LON USA_RECORD USA_STATUS USA_WIND USA_PRES USA_SSHS USA_R34_NE USA_R34_SE USA_R34_SW USA_R34_NW USA_R50_NE USA_R50_SE USA_R50_SW USA_R50_NW USA_R64_NE USA_R64_SE USA_R64_SW USA_R64_NW USA_POCI USA_ROCI USA_RMW USA_EYE TOKYO_LAT TOKYO_LON TOKYO_GRADE TOKYO_WIND TOKYO_PRES TOKYO_R50_DIR TOKYO_R50_LONG TOKYO_R50_SHORT TOKYO_R30_DIR TOKYO_R30_LONG TOKYO_R30_SHORT TOKYO_LAND CMA_LAT CMA_LON CMA_CAT CMA_WIND CMA_PRES HKO_LAT HKO_LON HKO_CAT HKO_WIND HKO_PRES NEWDELHI_LAT NEWDELHI_LON NEWDELHI_GRADE NEWDELHI_WIND NEWDELHI_PRES NEWDELHI_CI NEWDELHI_DP NEWDELHI_POCI REUNION_LAT REUNION_LON REUNION_TYPE REUNION_WIND REUNION_PRES REUNION_TNUM REUNION_CI REUNION_RMW REUNION_R34_NE REUNION_R34_SE REUNION_R34_SW REUNION_R34_NW REUNION_R50_NE REUNION_R50_SE REUNION_R50_SW REUNION_R50_NW REUNION_R64_NE REUNION_R64_SE REUNION_R64_SW REUNION_R64_NW BOM_LAT BOM_LON BOM_TYPE BOM_WIND BOM_PRES BOM_TNUM BOM_CI BOM_RMW BOM_R34_NE BOM_R34_SE BOM_R34_SW BOM_R34_NW BOM_R50_NE BOM_R50_SE BOM_R50_SW BOM_R50_NW BOM_R64_NE BOM_R64_SE BOM_R64_SW BOM_R64_NW BOM_ROCI BOM_POCI BOM_EYE BOM_POS_METHOD BOM_PRES_METHOD NADI_LAT NADI_LON NADI_CAT NADI_WIND NADI_PRES WELLINGTON_LAT WELLINGTON_LON WELLINGTON_WIND WELLINGTON_PRES DS824_LAT DS824_LON DS824_STAGE DS824_WIND DS824_PRES TD9636_LAT TD9636_LON TD9636_STAGE TD9636_WIND TD9636_PRES TD9635_LAT TD9635_LON TD9635_WIND TD9635_PRES TD9635_ROCI NEUMANN_LAT NEUMANN_LON NEUMANN_CLASS NEUMANN_WIND NEUMANN_PRES MLC_LAT MLC_LON MLC_CLASS MLC_WIND MLC_PRES USA_GUST BOM_GUST BOM_GUST_PER REUNION_GUST REUNION_GUST_PER USA_SEAHGT USA_SEARAD_NE USA_SEARAD_SE USA_SEARAD_SW USA_SEARAD_NW STORM_SPEED STORM_DIR
1998285N12149 1998 85 WP MM BABS 1998-10-11 18:00:00 NR 12.1000 149.200 main 1603 1602 O_____________ jtwc_wp WP201998 12.1000 149.200 20 -1 9 299
1998285N12149 1998 85 WP MM BABS 1998-10-11 21:00:00 NR 12.3325 148.780 main 1620 1620 P_____________ WP201998 12.3325 148.780 20 -1 10 294
1998285N12149 1998 85 WP MM BABS 1998-10-12 00:00:00 NR 12.5000 148.300 main 1638 1636 O_____________ jtwc_wp WP201998 12.5000 148.300 20 -1 11 282
1998285N12149 1998 85 WP MM BABS 1998-10-12 03:00:00 NR 12.5525 147.722 main 1647 1635 P_____________ WP201998 12.5525 147.722 20 -1 12 270
1998285N12149 1998 85 WP MM BABS 1998-10-12 06:00:00 NR 12.5000 147.100 main 1635 1624 O_____________ jtwc_wp WP201998 12.5000 147.100 20 -1 12 262
1998285N12149 1998 85 WP MM BABS 1998-10-12 09:00:00 NR 12.3725 146.485 main 1624 1603 P_____________ WP201998 12.3725 146.485 20 -1 12 256
1998285N12149 1998 85 WP MM BABS 1998-10-12 12:00:00 NR 12.2000 145.900 main 1604 1594 O_____________ jtwc_wp WP201998 12.2000 145.900 20 -1 11 253
1998285N12149 1998 85 WP MM BABS 1998-10-12 15:00:00 NR 12.0498 145.393 main 1585 1578 P_____________ WP201998 12.0498 145.393 20 -1 10 253
1998285N12149 1998 85 WP MM BABS 1998-10-12 18:00:00 NR 11.9000 144.900 main 1579 1565 O_____________ jtwc_wp WP201998 11.9000 144.900 20 -1 11 253
1998285N12149 1998 85 WP MM BABS 1998-10-12 21:00:00 NR 11.7275 144.342 main 1567 1561 P_____________ WP201998 11.7275 144.342 20 -1 11 254
1998285N12149 1998 85 WP MM BABS 1998-10-13 00:00:00 NR 11.6000 143.800 main 1565 1565 O_____________ jtwc_wp WP201998 11.6000 143.800 20 -1 10 261
1998285N12149 1998 85 WP MM BABS 1998-10-13 03:00:00 NR 11.5774 143.335 main 1577 1567 P_____________ WP201998 11.5774 143.335 20 -1 9 270
1998285N12149 1998 85 WP MM BABS 1998-10-13 06:00:00 NR 11.6000 142.900 main 1567 1553 O_____________ jtwc_wp WP201998 11.6000 142.900 20 -1 9 271
1998285N12149 1998 85 WP MM BABS 1998-10-13 09:00:00 NR 11.5924 142.465 main 1553 1537 P_____________ WP201998 11.5924 142.465 22 -1 9 270
1998285N12149 1998 85 WP MM BABS 1998-10-13 12:00:00 NR 11.6000 142.000 main 1537 1521 O_____________ jtwc_wp WP201998 11.6000 142.000 25 -1 10 273
1998285N12149 1998 85 WP MM BABS 1998-10-13 15:00:00 NR 11.6499 141.473 main 1521 1505 P_____________ WP201998 11.6499 141.473 25 -1 11 275
1998285N12149 1998 85 WP MM BABS 1998-10-13 18:00:00 NR 11.7000 140.900 main 1505 1482 O_____________ jtwc_wp WP201998 11.7000 140.900 25 -1 12 273
1998285N12149 1998 85 WP MM BABS 1998-10-13 21:00:00 NR 11.7075 140.285 main 1482 1461 P_____________ WP201998 11.7075 140.285 25 -1 12 270
1998285N12149 1998 85 WP MM BABS 1998-10-14 00:00:00 NR 11.7000 139.700 main 1461 1448 O_____________ jtwc_wp WP201998 11.7000 139.700 25 -1 10 270
1998285N12149 1998 85 WP MM BABS 1998-10-14 03:00:00 NR 11.6998 139.228 main 1445 1391 P_____________ WP201998 11.6998 139.228 25 -1 10 256
1998285N12149 1998 85 WP MM BABS 1998-10-14 06:00:00 TS 11.4600 138.700 1004 tokyo main 1391 1333 OO____________ jtwc_wp WP201998 11.7000 138.800 25 -1 10.5000 138.300 2 1004 0 0 0 11 250
1998285N12149 1998 85 WP MM BABS 1998-10-14 09:00:00 TS 11.3416 138.220 main 1333 1290 PP____________ WP201998 11.6999 138.350 25 -1 10.6251 137.960 2 1004 0 0 9 261
1998285N12149 1998 85 WP MM BABS 1998-10-14 12:00:00 TS 11.3143 137.771 1004 tokyo main 1290 1250 OO____________ jtwc_wp WP201998 11.7000 137.900 25 -1 10.8000 137.600 2 1004 0 0 0 9 272
1998285N12149 1998 85 WP MM BABS 1998-10-14 15:00:00 TS 11.3712 137.329 main 1239 1199 PP____________ WP201998 11.6924 137.450 27 -1 11.0500 137.208 2 1002 0 0 9 282
1998285N12149 1998 85 WP MM BABS 1998-10-14 18:00:00 TS 11.5000 136.900 1000 tokyo main 1199 1158 OO____________ jtwc_wp WP201998 11.7000 137.000 30 -1 11.3000 136.800 2 1000 0 0 0 9 286
1998285N12149 1998 85 WP MM BABS 1998-10-14 21:00:00 TS 11.6075 136.471 main 1158 1118 PP____________ WP201998 11.7424 136.550 30 -1 11.4725 136.392 2 999 0 0 8 283
1998285N12149 1998 85 WP MM BABS 1998-10-15 00:00:00 TS 11.6889 136.056 35 998 tokyo main 1118 1079 OO_O__________ jtwc_wp WP201998 11.8000 136.100 30 -1 11.6000 136.000 3 35 998 0 9 60 60 0 11.6000 136.100 TD 30 1000 8 282
1998285N12149 1998 85 WP MM BABS 1998-10-15 03:00:00 TS 11.7824 135.659 main 1079 1037 PP_P__________ WP201998 11.8574 135.665 32 -1 11.7149 135.650 3 35 998 0 9 60 60 11.7676 135.663 TD 30 1000 8 282
1998285N12149 1998 85 WP MM BABS 1998-10-15 06:00:00 TS 11.8636 135.236 35 998 tokyo main 1029 986 OO_O__________ jtwc_wp WP201998 11.9000 135.200 35 0 11.8000 135.300 3 35 998 0 9 60 60 0 11.9000 135.200 TD 30 1000 9 278
1998285N12149 1998 85 WP MM BABS 1998-10-15 09:00:00 TS 11.9125 134.762 main 986 932 PP_P__________ WP201998 11.9000 134.665 37 -1 11.8649 134.922 3 35 997 0 9 60 60 11.9725 134.700 TD 30 1000 10 274
1998285N12149 1998 85 WP MM BABS 1998-10-15 12:00:00 TS 11.9333 134.267 35 996 tokyo main 932 879 OO_O__________ jtwc_wp WP201998 11.9000 134.100 40 0 11.9000 134.500 3 35 996 0 9 60 60 0 12.0000 134.200 TD 30 1000 10 273
1998285N12149 1998 85 WP MM BABS 1998-10-15 15:00:00 TS 11.9575 133.744 main 868 825 PP_P__________ WP201998 11.9501 133.498 42 -1 11.9151 134.000 3 35 996 0 9 60 60 12.0074 133.735 TD 30 1000 10 272
1998285N12149 1998 85 WP MM BABS 1998-10-15 18:00:00 TS 11.9667 133.267 35 996 tokyo main 825 782 OO_O__________ jtwc_wp WP201998 12.0000 133.000 45 0 11.9000 133.500 3 35 996 0 9 60 60 0 12.0000 133.300 TD 30 1000 8 269
1998285N12149 1998 85 WP MM BABS 1998-10-15 21:00:00 TS 11.9499 132.886 main 780 748 PP_P__________ WP201998 11.9998 132.732 45 -1 11.8500 133.055 3 35 996 0 9 60 60 12.0000 132.870 TD 30 1000 7 267
1998285N12149 1998 85 WP MM BABS 1998-10-16 00:00:00 TS 11.9333 132.600 35 996 tokyo main 748 726 OO_O__________ jtwc_wp WP201998 12.0000 132.600 45 0 11.8000 132.700 3 35 996 0 9 60 60 0 12.0000 132.500 TD 30 1000 5 270
1998285N12149 1998 85 WP MM BABS 1998-10-16 03:00:00 TS 11.9474 132.389 main 726 706 PP_P__________ WP201998 12.0500 132.493 45 -1 11.7924 132.463 3 35 996 0 9 60 60 11.9999 132.213 TD 30 1000 4 275
1998285N12149 1998 85 WP MM BABS 1998-10-16 06:00:00 TS 11.9667 132.233 35 996 tokyo main 706 696 OO_O__________ jtwc_wp WP201998 12.1000 132.400 45 0 11.8000 132.300 3 35 996 0 9 60 60 0 12.0000 132.000 TD 30 1000 3 274
1998285N12149 1998 85 WP MM BABS 1998-10-16 09:00:00 TS 11.9666 132.078 main 696 674 PP_P__________ WP201998 12.1000 132.257 45 -1 11.8000 132.143 3 35 997 0 9 60 60 12.0000 131.835 TD 30 1000 3 270
1998285N12149 1998 85 WP MM BABS 1998-10-16 12:00:00 TS 11.9667 131.933 35 998 tokyo main 674 663 OO_O__________ jtwc_wp WP201998 12.1000 132.100 45 0 11.8000 132.000 3 35 998 0 9 60 60 0 12.0000 131.700 TD 30 1000 3 273
1998285N12149 1998 85 WP MM BABS 1998-10-16 15:00:00 TS 11.9833 131.783 main 663 642 PP_P__________ WP201998 12.1500 131.958 45 -1 11.8000 131.842 3 35 998 0 9 60 60 12.0000 131.550 TD 30 1000 3 276
1998285N12149 1998 85 WP MM BABS 1998-10-16 18:00:00 TS 12.0000 131.633 35 998 tokyo main 642 631 OO_O__________ jtwc_wp WP201998 12.2000 131.800 45 0 11.8000 131.700 3 35 998 0 9 60 60 0 12.0000 131.400 TD 30 1000 3 274
1998285N12149 1998 85 WP MM BABS 1998-10-16 21:00:00 TS 12.0050 131.488 main 631 618 PP_P__________ WP201998 12.2150 131.607 45 -1 11.8000 131.607 3 35 998 0 9 60 60 12.0000 131.250 TD 30 1000 3 256
1998285N12149 1998 85 WP MM BABS 1998-10-17 00:00:00 TS 11.9385 131.385 35 998 tokyo main 618 608 OOOO__________ jtwc_wp WP201998 12.2000 131.400 45 0 11.8000 131.500 3 35 998 0 9 60 60 0 11.2000 132.000 1 29 1000 12.0000 131.100 TD 30 1000 3 246
1998285N12149 1998 85 WP MM BABS 1998-10-17 03:00:00 TS 11.9007 131.246 main 597 586 PPPP__________ WP201998 12.1500 131.207 45 -1 11.8075 131.315 3 35 998 0 9 60 60 11.3900 131.778 1 29 1000 12.0000 130.950 TD 30 1000 3 258
1998285N12149 1998 85 WP MM BABS 1998-10-17 06:00:00 TS 11.8733 131.073 35 998 tokyo main 586 563 OOOO__________ jtwc_wp WP201998 12.1000 131.000 45 0 11.8000 131.100 3 35 998 0 9 60 60 0 11.5000 131.500 1 29 1000 12.0000 130.800 TD 30 1000 4 260
1998285N12149 1998 85 WP MM BABS 1998-10-17 09:00:00 TS 11.8363 130.857 main 563 531 PPPP__________ WP201998 12.1000 130.743 42 -1 11.7575 130.893 3 35 998 0 9 60 60 11.4801 131.142 1 29 999 12.0075 130.650 TD 30 1000 4 260
1998285N12149 1998 85 WP MM BABS 1998-10-17 12:00:00 TS 11.8000 130.625 35 998 tokyo main 531 520 OOOO__________ jtwc_wp WP201998 12.1000 130.500 40 0 11.7000 130.700 3 35 998 0 9 60 60 0 11.4000 130.800 1 29 998 12.0000 130.500 TD 30 1000 4 259
1998285N12149 1998 85 WP MM BABS 1998-10-17 15:00:00 TS 11.7593 130.446 main 509 497 PPPP__________ WP201998 12.0650 130.320 40 -1 11.6575 130.543 3 35 998 0 9 60 60 11.3499 130.578 1 29 998 11.9650 130.342 TD 30 1000 3 253
1998285N12149 1998 85 WP MM BABS 1998-10-17 18:00:00 TS 11.7000 130.300 35 998 tokyo main 497 484 OOOO__________ jtwc_wp WP201998 12.0000 130.200 40 0 11.6000 130.400 3 35 998 0 9 60 60 0 11.3000 130.400 1 29 998 11.9000 130.200 TD 30 1000 3 243
1998285N12149 1998 85 WP MM BABS 1998-10-17 21:00:00 TS 11.6200 130.160 main 484 472 PPPP__________ WP201998 11.9075 130.135 40 -1 11.5150 130.250 3 35 998 0 9 60 60 11.2425 130.170 1 29 998 11.8150 130.085 TD 32 999 3 234
1998285N12149 1998 85 WP MM BABS 1998-10-18 00:00:00 TS 11.5250 130.050 35 998 tokyo main 472 460 OOOO__________ jtwc_wp WP201998 11.8000 130.100 40 0 11.4000 130.100 3 35 998 0 9 60 60 0 11.2000 130.000 1 29 998 11.7000 130.000 TS 35 998 3 225
1998285N12149 1998 85 WP MM BABS 1998-10-18 03:00:00 TS 11.4362 129.976 main 460 448 PPPP__________ WP201998 11.7075 130.050 40 -1 11.2575 129.935 3 35 998 0 9 60 60 11.2225 129.978 1 29 996 11.5575 129.943 TS 35 998 2 213
1998285N12149 1998 85 WP MM BABS 1998-10-18 06:00:00 TS 11.3250 129.925 35 998 tokyo main 448 448 OOOO__________ jtwc_wp WP201998 11.6000 130.000 40 0 11.1000 129.800 3 35 998 0 9 60 60 0 11.2000 130.000 1 29 995 11.4000 129.900 TS 35 998 3 201
1998285N12149 1998 85 WP MM BABS 1998-10-18 09:00:00 TS 11.1625 129.869 main 448 436 PPPP__________ WP201998 11.4500 129.950 42 -1 10.9500 129.728 3 37 996 0 9 70 70 11.0000 129.950 1 29 995 11.2500 129.850 TS 37 996 3 196
1998285N12149 1998 85 WP MM BABS 1998-10-18 12:00:00 TS 11.0000 129.825 40 994 tokyo main 436 436 OOOO__________ jtwc_wp WP201998 11.3000 129.900 45 0 10.8000 129.700 3 40 994 0 9 80 80 0 10.8000 129.900 1 29 995 11.1000 129.800 TS 40 994 3 193
1998285N12149 1998 85 WP MM BABS 1998-10-18 15:00:00 TS 10.8850 129.796 main 437 433 PPPP__________ WP201998 11.1850 129.850 47 -1 10.6200 129.678 3 42 993 0 9 100 100 10.7925 129.908 1 33 992 10.9425 129.750 TS 42 992 2 197
1998285N12149 1998 85 WP MM BABS 1998-10-18 18:00:00 TS 10.8000 129.775 45 992 tokyo main 433 428 OOOO__________ jtwc_wp WP201998 11.1000 129.800 50 0 10.5000 129.700 3 45 992 0 9 120 120 0 10.8000 129.900 2 38 990 10.8000 129.700 TS 45 990 2 195
1998285N12149 1998 85 WP MM BABS 1998-10-18 21:00:00 TS 10.7225 129.757 main 428 418 PPPP__________ WP201998 11.0425 129.758 57 -1 10.5125 129.807 3 50 988 0 9 135 135 10.6500 129.807 2 43 987 10.6850 129.658 TS 50 985 1 204
1998285N12149 1998 85 WP MM BABS 1998-10-19 00:00:00 TS 10.6750 129.725 55 985 tokyo main 418 418 OOOO__________ jtwc_wp WP201998 11.0000 129.700 65 1 10.6000 129.900 4 55 985 9 60 60 9 150 150 0 10.5000 129.700 3 48 985 10.6000 129.600 STS 55 980 1 236
1998285N12149 1998 85 WP MM BABS 1998-10-19 03:00:00 TS 10.6600 129.661 main 418 408 PPPP__________ WP201998 10.9425 129.607 65 -1 10.7000 129.888 4 55 985 9 60 60 9 150 150 10.4775 129.635 3 48 985 10.5200 129.515 STS 55 980 1 270
1998285N12149 1998 85 WP MM BABS 1998-10-19 06:00:00 TS 10.6750 129.575 55 985 tokyo main 408 398 OOOO__________ jtwc_wp WP201998 10.9000 129.500 65 1 10.8000 129.800 4 55 985 9 60 60 9 150 150 0 10.5000 129.600 3 48 985 10.5000 129.400 STS 55 980 2 281
1998285N12149 1998 85 WP MM BABS 1998-10-19 09:00:00 TS 10.6900 129.499 main 398 388 PPPP__________ WP201998 10.8850 129.415 65 -1 10.8500 129.680 4 57 982 9 65 65 9 155 155 10.4550 129.637 3 51 985 10.5700 129.265 STS 57 977 2 291
1998285N12149 1998 85 WP MM BABS 1998-10-19 12:00:00 TS 10.7500 129.375 60 980 tokyo main 393 371 OOOO__________ jtwc_wp WP201998 10.9000 129.300 65 1 10.9000 129.500 4 60 980 9 70 70 9 160 160 0 10.5000 129.600 3 54 985 10.7000 129.100 STS 60 975 4 300
1998285N12149 1998 85 WP MM BABS 1998-10-19 15:00:00 TS 10.8775 129.173 main 371 338 PPPP__________ WP201998 10.9275 129.130 70 -1 10.9774 129.287 4 62 977 9 75 75 9 170 170 10.7700 129.360 3 61 980 10.8350 128.915 STS 62 972 6 303
1998285N12149 1998 85 WP MM BABS 1998-10-19 18:00:00 TS 11.0500 128.900 65 975 tokyo main 338 306 OOOO__________ jtwc_wp WP201998 11.0000 128.900 75 1 11.1000 129.000 5 65 975 9 80 80 9 180 180 0 11.1000 129.000 4 68 975 11.0000 128.700 T 65 970 7 301
1998285N12149 1998 85 WP MM BABS 1998-10-19 21:00:00 TS 11.2338 128.566 main 306 265 PPPP__________ WP201998 11.1275 128.615 95 -1 11.2926 128.600 5 70 970 9 85 85 9 190 190 11.3226 128.592 4 72 970 11.1925 128.458 T 70 965 8 300
1998285N12149 1998 85 WP MM BABS 1998-10-20 00:00:00 TS 11.4250 128.225 75 965 tokyo main 265 246 OOOO__________ jtwc_wp WP201998 11.3000 128.300 115 4 11.5000 128.200 5 75 965 9 90 90 9 200 200 0 11.5000 128.200 4 77 965 11.4000 128.200 T 75 960 7 301
1998285N12149 1998 85 WP MM BABS 1998-10-20 03:00:00 TS 11.5962 127.951 main 249 221 PPPP__________ WP201998 11.4850 128.000 120 -1 11.6499 127.927 5 77 957 9 105 105 9 210 210 11.6499 127.927 4 82 960 11.6000 127.950 T 80 955 6 304
1998285N12149 1998 85 WP MM BABS 1998-10-20 06:00:00 TS 11.7750 127.700 80 950 tokyo main 225 211 OOOO__________ jtwc_wp WP201998 11.7000 127.700 125 4 11.8000 127.700 5 80 950 9 120 120 9 220 220 0 11.8000 127.700 5 87 955 11.8000 127.700 ST 85 950 6 308
1998285N12149 1998 85 WP MM BABS 1998-10-20 09:00:00 TS 11.9762 127.454 main 216 184 PPPP__________ WP201998 11.9424 127.407 130 -1 11.9774 127.472 5 82 945 9 130 130 9 235 235 11.9849 127.472 5 92 947 11.9999 127.465 ST 90 945 7 310
1998285N12149 1998 85 WP MM BABS 1998-10-20 12:00:00 TS 12.2000 127.175 85 940 tokyo main 184 143 OOOO__________ jtwc_wp WP201998 12.2000 127.100 135 4 12.2000 127.200 5 85 940 9 140 140 9 250 250 0 12.2000 127.200 5 97 940 12.2000 127.200 ST 95 940 8 308
1998285N12149 1998 85 WP MM BABS 1998-10-20 15:00:00 TS 12.4556 126.821 main 145 112 PPPP__________ WP201998 12.4650 126.765 135 -1 12.5001 126.815 5 85 940 9 140 140 9 260 260 12.4575 126.823 5 97 940 12.3999 126.880 ST 95 940 9 304
1998285N12149 1998 85 WP MM BABS 1998-10-20 18:00:00 TS 12.7000 126.425 85 940 tokyo main 112 93 OOOO__________ jtwc_wp WP201998 12.7000 126.400 135 4 12.8000 126.400 5 85 940 9 140 140 9 270 270 0 12.7000 126.400 5 97 940 12.6000 126.500 ST 95 940 9 299
1998285N12149 1998 85 WP MM BABS 1998-10-20 21:00:00 TS 12.8844 126.019 main 94 70 PPPP__________ WP201998 12.8575 126.000 135 -1 13.0224 126.042 5 85 940 9 140 140 9 285 285 12.8500 125.985 5 97 940 12.8076 126.050 ST 95 940 9 294
1998285N12149 1998 85 WP MM BABS 1998-10-21 00:00:00 TS 13.0500 125.625 85 940 tokyo main 79 70 OOOO__________ jtwc_wp WP201998 13.0000 125.600 135 4 13.2000 125.700 5 85 940 9 140 140 9 300 300 0 13.0000 125.600 5 97 940 13.0000 125.600 ST 95 940 8 297
1998285N12149 1998 85 WP MM BABS 1998-10-21 03:00:00 TS 13.2449 125.278 main 79 73 PPPP__________ WP201998 13.1999 125.243 132 -1 13.3650 125.350 5 85 940 9 140 140 9 300 300 13.2574 125.293 5 97 940 13.1574 125.227 ST 95 940 8 300
1998285N12149 1998 85 WP MM BABS 1998-10-21 06:00:00 TS 13.4250 124.950 85 940 tokyo main 73 24 OOOO__________ jtwc_wp WP201998 13.4000 124.900 130 4 13.5000 125.000 5 85 940 9 140 140 9 300 300 0 13.5000 125.000 5 97 940 13.3000 124.900 ST 95 940 7 296
1998285N12149 1998 85 WP MM BABS 1998-10-21 09:00:00 TS 13.5612 124.611 main 24 0 PPPP__________ WP201998 13.5650 124.542 130 -1 13.6075 124.642 5 85 942 9 140 140 9 300 300 13.6224 124.665 5 97 940 13.4499 124.592 ST 95 940 7 291
1998285N12149 1998 85 WP MM BABS 1998-10-21 12:00:00 TS 13.6750 124.275 85 945 tokyo main 0 0 OOOO__________ jtwc_wp WP201998 13.7000 124.200 130 4 13.7000 124.300 5 85 945 9 140 140 9 300 300 0 13.7000 124.300 5 97 940 13.6000 124.300 ST 95 940 7 289
1998285N12149 1998 85 WP MM BABS 1998-10-21 15:00:00 TS 13.7856 123.935 main 10 0 PPPP__________ WP201998 13.8000 123.885 125 -1 13.8000 123.985 5 82 947 9 130 130 9 285 285 13.7926 123.870 5 92 945 13.7500 124.000 ST 92 942 7 290
1998285N12149 1998 85 WP MM BABS 1998-10-21 18:00:00 TS 13.9000 123.625 80 950 tokyo main 0 0 OOOO__________ jtwc_wp WP201998 13.9000 123.600 120 4 13.9000 123.700 5 80 950 9 120 120 9 270 270 0 13.9000 123.500 5 87 950 13.9000 123.700 ST 90 945 6 294
1998285N12149 1998 85 WP MM BABS 1998-10-21 21:00:00 TS 14.0262 123.382 main 10 0 PPPP__________ WP201998 14.0350 123.342 112 -1 13.9849 123.450 5 77 952 9 110 110 9 250 250 14.0423 123.335 5 87 950 14.0425 123.400 ST 87 947 5 301
1998285N12149 1998 85 WP MM BABS 1998-10-22 00:00:00 TS 14.1750 123.150 75 955 tokyo main 22 10 OOOO__________ jtwc_wp WP201998 14.2000 123.100 105 3 14.1000 123.200 5 75 955 9 100 100 9 230 230 0 14.2000 123.200 5 87 950 14.2000 123.100 ST 85 950 6 303
1998285N12149 1998 85 WP MM BABS 1998-10-22 03:00:00 TS 14.3512 122.872 main 22 22 PPPP__________ WP201998 14.3924 122.857 97 -1 14.2850 122.908 5 72 957 9 95 95 9 215 215 14.3350 122.922 5 82 955 14.3925 122.800 ST 80 955 7 304
1998285N12149 1998 85 WP MM BABS 1998-10-22 06:00:00 TS 14.5500 122.575 70 960 tokyo main 44 33 OOOO__________ jtwc_wp WP201998 14.6000 122.600 90 2 14.5000 122.600 5 70 960 9 90 90 9 200 200 0 14.5000 122.600 4 77 960 14.6000 122.500 T 75 960 7 305
1998285N12149 1998 85 WP MM BABS 1998-10-22 09:00:00 TS 14.7550 122.281 main 65 39 PPPP__________ WP201998 14.8000 122.315 102 -1 14.6774 122.307 5 70 962 9 85 85 9 200 200 14.7425 122.300 4 77 960 14.8000 122.200 T 72 962 7 306
1998285N12149 1998 85 WP MM BABS 1998-10-22 12:00:00 TS 14.9750 121.975 70 965 tokyo main 46 31 OOOO__________ jtwc_wp WP201998 15.0000 122.000 115 4 14.9000 122.000 5 70 965 9 80 80 9 200 200 0 15.0000 122.000 4 77 960 15.0000 121.900 T 70 965 7 307
1998285N12149 1998 85 WP MM BABS 1998-10-22 15:00:00 TS 15.1936 121.682 main 31 0 PPPP__________ WP201998 15.1849 121.680 105 -1 15.2198 121.695 5 67 967 9 75 75 9 215 215 15.1849 121.722 4 72 965 15.1848 121.630 T 70 965 8 307
1998285N12149 1998 85 WP MM BABS 1998-10-22 18:00:00 TS 15.4500 121.325 65 970 tokyo main 0 0 OOOO__________ jtwc_wp WP201998 15.4000 121.300 95 2 15.6000 121.300 5 65 970 9 70 70 9 230 230 0 15.4000 121.400 4 68 970 15.4000 121.300 T 70 965 10 306
1998285N12149 1998 85 WP MM BABS 1998-10-22 21:00:00 TS 15.7989 120.824 main 0 0 PPPP__________ WP201998 15.7001 120.808 90 -1 16.0379 120.701 5 62 970 9 65 65 9 277 205 15.7575 120.980 4 66 972 15.7002 120.808 T 70 965 12 304
1998285N12149 1998 85 WP MM BABS 1998-10-23 00:00:00 TS 16.1250 120.300 60 970 tokyo main 0 0 OOOO__________ jtwc_wp WP201998 16.0000 120.300 85 2 16.4000 120.100 4 60 970 9 60 60 7 325 180 0 16.1000 120.500 4 64 975 16.0000 120.300 T 70 965 11 300
1998285N12149 1998 85 WP MM BABS 1998-10-23 03:00:00 TS 16.3211 119.870 main 0 0 PPPP__________ WP201998 16.2374 119.870 82 -1 16.5522 119.712 4 60 970 9 60 60 7 350 210 16.2726 119.977 4 64 975 16.2223 119.920 T 70 965 8 293
1998285N12149 1998 85 WP MM BABS 1998-10-23 06:00:00 TS 16.4500 119.500 60 970 tokyo main 39 39 OOOO__________ jtwc_wp WP201998 16.4000 119.500 XX 80 -5 16.6000 119.400 4 60 970 9 60 60 7 375 240 0 16.4000 119.500 4 64 975 16.4000 119.600 T 70 965 7 290
1998285N12149 1998 85 WP MM BABS 1998-10-23 09:00:00 TS 16.5624 119.171 main 72 72 PPPP__________ WP201998 16.4724 119.185 XX 80 -5 16.6499 119.050 4 62 970 9 65 65 7 375 240 16.5774 119.147 4 64 975 16.5499 119.300 T 70 965 6 291
1998285N12149 1998 85 WP MM BABS 1998-10-23 12:00:00 TS 16.6750 118.875 65 970 tokyo main 105 105 OOOO__________ jtwc_wp WP201998 16.5000 118.900 XX 80 -5 16.7000 118.700 5 65 970 9 70 70 7 375 240 0 16.8000 118.900 4 64 975 16.7000 119.000 T 70 965 6 296
1998285N12149 1998 85 WP MM BABS 1998-10-23 15:00:00 TS 16.8281 118.589 main 139 139 PPPP__________ WP201998 16.5425 118.600 XX 80 -5 16.7849 118.350 5 65 970 9 85 85 7 375 245 17.0849 118.750 4 64 975 16.9000 118.658 T 70 965 6 301
1998285N12149 1998 85 WP MM BABS 1998-10-23 18:00:00 TS 17.0000 118.300 65 970 tokyo main 178 178 OOOO__________ jtwc_wp WP201998 16.6000 118.300 XX 80 -5 16.9000 118.000 5 65 970 9 100 100 7 375 250 0 17.4000 118.600 4 64 975 17.1000 118.300 T 70 965 7 300
1998285N12149 1998 85 WP MM BABS 1998-10-23 21:00:00 TS 17.1656 117.977 main 216 216 PPPP__________ WP201998 16.6475 117.992 XX 80 -5 17.0275 117.642 5 67 970 9 110 110 7 375 250 17.7450 118.323 4 64 975 17.2424 117.950 T 70 965 7 299
1998285N12149 1998 85 WP MM BABS 1998-10-24 00:00:00 TS 17.3500 117.650 70 970 tokyo main 255 250 OOOO__________ jtwc_wp WP201998 16.8000 117.700 XX 80 -5 17.2000 117.300 5 70 970 9 120 120 7 375 250 0 18.0000 118.000 4 64 975 17.4000 117.600 T 70 965 7 303
1998285N12149 1998 85 WP MM BABS 1998-10-24 03:00:00 TS 17.5693 117.337 main 303 303 PPPP__________ WP201998 17.1850 117.428 XX 80 -5 17.4350 116.978 5 70 970 9 125 125 7 375 250 18.0149 117.707 4 64 975 17.6425 117.235 T 70 965 7 308
1998285N12149 1998 85 WP MM BABS 1998-10-24 06:00:00 TS 17.8000 117.050 70 970 tokyo main 332 332 OOOO__________ jtwc_wp WP201998 17.6000 117.200 XX 80 -5 17.7000 116.700 5 70 970 9 130 130 7 375 250 0 18.0000 117.400 4 64 975 17.9000 116.900 T 70 965 7 311
1998285N12149 1998 85 WP MM BABS 1998-10-24 09:00:00 TS 18.0143 116.796 main 371 371 PPPP__________ WP201998 17.8224 117.042 XX 80 -5 17.9499 116.477 5 72 967 9 135 135 7 375 250 18.1776 117.043 4 64 975 18.1074 116.620 T 70 965 6 313
1998285N12149 1998 85 WP MM BABS 1998-10-24 12:00:00 TS 18.2250 116.575 75 965 tokyo main 397 397 OOOO__________ jtwc_wp WP201998 18.0000 116.900 XX 80 -5 18.2000 116.300 5 75 965 9 140 140 7 375 250 0 18.4000 116.700 4 64 975 18.3000 116.400 T 70 965 6 316
1998285N12149 1998 85 WP MM BABS 1998-10-24 15:00:00 TS 18.4356 116.371 main 422 422 PPPP__________ WP201998 18.2425 116.693 XX 80 -5 18.4500 116.135 5 75 965 9 140 140 7 400 275 18.5499 116.427 4 64 975 18.5000 116.227 T 70 965 6 320
1998285N12149 1998 85 WP MM BABS 1998-10-24 18:00:00 TS 18.6500 116.200 75 965 tokyo main 445 421 OOOO__________ jtwc_wp WP201998 18.5000 116.500 XX 80 -5 18.7000 116.000 5 75 965 9 140 140 8 425 300 0 18.7000 116.200 4 64 975 18.7000 116.100 T 70 965 5 325
1998285N12149 1998 85 WP MM BABS 1998-10-24 21:00:00 TS 18.8637 116.051 main 421 397 PPPP__________ WP201998 18.7425 116.370 XX 77 -5 18.9425 115.885 5 72 965 9 130 130 8 425 300 18.8775 115.963 4 64 975 18.8925 115.985 T 70 965 5 332
1998285N12149 1998 85 WP MM BABS 1998-10-25 00:00:00 TS 19.1000 115.950 70 965 tokyo main 397 361 OOOO__________ jtwc_wp WP201998 19.0000 116.300 XX 75 -5 19.2000 115.800 5 70 965 9 120 120 8 425 300 0 19.1000 115.800 4 64 975 19.1000 115.900 T 70 965 5 345
1998285N12149 1998 85 WP MM BABS 1998-10-25 03:00:00 TS 19.3819 115.904 main 361 329 PPPP__________ WP201998 19.2925 116.285 XX 75 -5 19.5000 115.735 5 70 965 9 120 120 8 425 300 19.3925 115.762 4 64 975 19.3425 115.835 T 70 965 6 357
1998285N12149 1998 85 WP MM BABS 1998-10-25 06:00:00 TS 19.6750 115.900 70 965 tokyo main 329 308 OOOO__________ jtwc_wp WP201998 19.6000 116.300 XX 75 -5 19.8000 115.700 5 70 965 9 120 120 1 425 300 0 19.7000 115.800 4 64 975 19.6000 115.800 T 70 965 6 357
1998285N12149 1998 85 WP MM BABS 1998-10-25 09:00:00 TS 19.9450 115.899 main 308 277 PPPP__________ WP201998 19.9000 116.293 XX 75 -5 20.0575 115.685 5 70 965 9 120 120 1 425 300 19.9725 115.835 4 64 975 19.8500 115.785 T 70 965 5 0
1998285N12149 1998 85 WP MM BABS 1998-10-25 12:00:00 TS 20.2000 115.925 70 965 tokyo main 277 258 OOOO__________ jtwc_wp WP201998 20.2000 116.300 XX 75 -5 20.3000 115.700 5 70 965 9 120 120 1 425 300 0 20.2000 115.900 4 64 975 20.1000 115.800 T 70 965 5 8
1998285N12149 1998 85 WP MM BABS 1998-10-25 15:00:00 TS 20.4394 115.969 main 258 224 PPPP__________ WP201998 20.5000 116.328 XX 72 -5 20.5500 115.720 5 70 965 9 120 120 1 425 300 20.3650 116.000 4 64 975 20.3425 115.828 T 67 967 5 14
1998285N12149 1998 85 WP MM BABS 1998-10-25 18:00:00 TS 20.6750 116.050 70 965 tokyo main 225 203 OOOO__________ jtwc_wp WP201998 20.8000 116.400 XX 70 -5 20.8000 115.800 5 70 965 9 120 120 1 425 300 0 20.5000 116.100 4 64 975 20.6000 115.900 T 65 970 5 21
1998285N12149 1998 85 WP MM BABS 1998-10-25 21:00:00 TS 20.9137 116.167 main 205 175 PPPP__________ WP201998 21.1000 116.535 XX 67 -5 21.0500 115.977 5 67 967 9 120 120 1 412 300 20.6049 116.128 4 64 975 20.9000 116.027 T 65 970 6 27
1998285N12149 1998 85 WP MM BABS 1998-10-26 00:00:00 TS 21.1750 116.325 65 970 tokyo main 175 151 OOOO__________ jtwc_wp WP201998 21.4000 116.700 XX 65 -5 21.3000 116.200 5 65 970 9 120 120 1 400 300 0 20.8000 116.200 4 64 975 21.2000 116.200 T 65 970 7 30
1998285N12149 1998 85 WP MM BABS 1998-10-26 03:00:00 TS 21.4819 116.514 main 151 124 PPPP__________ WP201998 21.7075 116.857 XX 65 -5 21.5424 116.393 5 62 972 9 110 110 1 387 300 21.2200 116.412 4 64 975 21.4575 116.393 T 65 970 7 31
1998285N12149 1998 85 WP MM BABS 1998-10-26 06:00:00 TS 21.8000 116.725 60 975 tokyo main 124 98 OOOO__________ jtwc_wp WP201998 22.0000 117.000 XX 65 -5 21.8000 116.600 4 60 975 9 100 100 1 375 300 0 21.7000 116.700 4 64 975 21.7000 116.600 T 65 970 7 33
1998285N12149 1998 85 WP MM BABS 1998-10-26 09:00:00 TS 22.0969 116.941 main 98 83 PPPP__________ WP201998 22.2650 117.100 XX 65 -5 22.1076 116.857 4 60 975 9 90 90 1 362 290 22.0651 117.008 4 64 975 21.9500 116.800 T 62 972 7 34
1998285N12149 1998 85 WP MM BABS 1998-10-26 12:00:00 TS 22.3750 117.150 60 975 tokyo main 90 84 OOOO__________ jtwc_wp WP201998 22.5000 117.200 XX 65 -5 22.4000 117.100 4 60 975 9 80 80 1 350 280 0 22.4000 117.300 4 64 975 22.2000 117.000 STS 60 975 7 34
1998285N12149 1998 85 WP MM BABS 1998-10-26 15:00:00 TS 22.6362 117.329 main 88 78 PPPP__________ WP201998 22.7075 117.343 XX 65 -5 22.6224 117.265 4 57 977 9 75 75 1 337 280 22.7649 117.515 4 61 977 22.4499 117.193 STS 60 975 6 33
1998285N12149 1998 85 WP MM BABS 1998-10-26 18:00:00 TS 22.8750 117.500 55 980 tokyo main 78 67 OOOO__________ jtwc_wp WP201998 22.9000 117.500 65 -1 22.8000 117.400 4 55 980 9 70 70 1 325 280 0 23.1000 117.700 3 58 980 22.7000 117.400 STS 60 975 6 36
1998285N12149 1998 85 WP MM BABS 1998-10-26 21:00:00 TS 23.0931 117.689 main 67 49 PPPP__________ WP201998 23.0850 117.643 57 -1 22.9725 117.565 4 50 985 9 1 267 225 23.3650 117.900 3 53 982 22.9500 117.650 STS 55 980 5 39
1998285N12149 1998 85 WP MM BABS 1998-10-27 00:00:00 TS 23.3000 117.875 45 990 tokyo main 54 45 OOOO__________ jtwc_wp WP201998 23.3000 117.800 50 -1 23.1000 117.700 3 45 990 0 2 210 170 0 23.6000 118.100 3 48 985 23.2000 117.900 STS 50 985 5 37
1998285N12149 1998 85 WP MM BABS 1998-10-27 03:00:00 TS 23.5162 118.039 main 46 37 PPPP__________ WP201998 23.6000 117.992 47 -1 23.1650 117.758 3 40 994 0 2 180 140 23.8574 118.293 3 43 990 23.4425 118.115 STS 45 989 5 34
1998285N12149 1998 85 WP MM BABS 1998-10-27 06:00:00 TS 23.7267 118.193 35 998 tokyo main 45 37 OOOO__________ jtwc_wp WP201998 23.9000 118.200 45 -1 23.2000 117.800 3 35 998 0 2 150 110 0 24.1000 118.500 2 38 995 23.7000 118.300 TS 40 994 4 33
1998285N12149 1998 85 WP MM BABS 1998-10-27 09:00:00 TS 23.8657 118.285 main 42 42 PPPP__________ WP201998 24.1150 118.400 37 -1 23.1205 117.701 3 1001 0 2 24.2994 118.668 2 33 998 23.9900 118.457 TS 35 997 4 46
1998285N12149 1998 85 WP MM BABS 1998-10-27 12:00:00 MX 23.9909 118.491 1004 tokyo main 52 39 OOOO__________ jtwc_wp WP201998 24.3000 118.600 30 -1 23.3000 118.000 6 1004 0 0 0 24.5000 119.000 1 29 1002 24.3000 118.600 TD 30 1000 10 60
1998285N12149 1998 85 WP MM BABS 1998-10-27 15:00:00 MX 24.3694 119.250 main 55 52 PPP___________ WP201998 24.4951 118.800 27 -1 24.1217 119.274 6 1008 0 0 24.7390 119.651 1 26 1003 TD 21 60
1998285N12149 1998 85 WP MM BABS 1998-10-27 18:00:00 MX 25.0167 120.450 1012 tokyo main 49 30 OOO___________ jtwc_wp WP201998 24.7000 119.000 25 -1 25.1000 120.800 6 1012 0 0 0 25.0000 120.500 1 23 1004 26 59
1998285N12149 1998 85 WP MM BABS 1998-10-27 21:00:00 ET 25.7113 121.713 main 56 56 _P____________ WP201998 -1 25.7113 121.713 6 1012 0 0 1 23 56
1998285N12149 1998 85 WP MM BABS 1998-10-28 00:00:00 ET 26.3000 122.600 1012 tokyo main 157 157 _O____________ -1 26.3000 122.600 6 1012 0 0 0 24 55
1998285N12149 1998 85 WP MM BABS 1998-10-28 03:00:00 ET 27.1241 123.925 main 262 262 _P____________ -1 27.1241 123.925 6 1012 0 0 29 56
1998285N12149 1998 85 WP MM BABS 1998-10-28 06:00:00 ET 27.9000 125.300 1012 tokyo main 353 353 _O____________ -1 27.9000 125.300 6 1012 0 0 0 25 60
1998285N12149 1998 85 WP MM BABS 1998-10-28 09:00:00 ET 28.3928 126.391 main 437 386 _P____________ -1 28.3928 126.391 6 1012 0 0 21 64
1998285N12149 1998 85 WP MM BABS 1998-10-28 12:00:00 ET 28.8000 127.400 1012 tokyo main 379 273 _O____________ -1 28.8000 127.400 6 1012 0 0 0 20 62
1998285N12149 1998 85 WP MM BABS 1998-10-28 15:00:00 ET 29.3499 128.424 main 273 169 _P____________ -1 29.3499 128.424 6 1012 0 0 22 62
1998285N12149 1998 85 WP MM BABS 1998-10-28 18:00:00 ET 29.8000 129.600 1012 tokyo main 166 111 _O____________ -1 29.8000 129.600 6 1012 0 0 0 24 75
1998285N12149 1998 85 WP MM BABS 1998-10-28 21:00:00 ET 29.9688 131.114 main 117 117 _P____________ -1 29.9688 131.114 6 1012 0 0 27 86
1998285N12149 1998 85 WP MM BABS 1998-10-29 00:00:00 ET 30.0000 132.700 1012 tokyo main 199 199 _O____________ -1 30.0000 132.700 6 1012 0 0 0 26 88
1998285N12149 1998 85 WP MM BABS 1998-10-29 03:00:00 ET 30.0421 134.156 main 309 309 _P____________ -1 30.0421 134.156 6 1012 0 0 23 88
1998285N12149 1998 85 WP MM BABS 1998-10-29 06:00:00 ET 30.1000 135.400 1012 tokyo main 363 357 _O____________ -1 30.1000 135.400 6 1012 0 0 0 19 84
1998285N12149 1998 85 WP MM BABS 1998-10-29 09:00:00 ET 30.2411 136.384 main 361 350 _P____________ -1 30.2411 136.384 6 1012 0 0 15 78
1998285N12149 1998 85 WP MM BABS 1998-10-29 12:00:00 ET 30.4000 137.100 1012 tokyo main 356 356 _O____________ -1 30.4000 137.100 6 1012 0 0 0 11 76
1998285N12149 1998 85 WP MM BABS 1998-10-29 15:00:00 ET 30.5065 137.610 main 365 364 _P____________ -1 30.5065 137.610 6 1013 0 0 8 76
1998285N12149 1998 85 WP MM BABS 1998-10-29 18:00:00 ET 30.6000 138.000 1014 tokyo main 374 374 _O____________ -1 30.6000 138.000 6 1014 0 0 0 7 75
1998285N12149 1998 85 WP MM BABS 1998-10-29 21:00:00 ET 30.6982 138.430 main 387 387 _P____________ -1 30.6982 138.430 6 1014 0 0 8 76
1998285N12149 1998 85 WP MM BABS 1998-10-30 00:00:00 ET 30.8000 138.900 1014 tokyo main 411 _O____________ -1 30.8000 138.900 6 1014 0 0 0 8 76

デジタル台風データ・検索

IBTrACS Databaseについて

本データベースは、米国NOAAが公開する1842年以降の世界の熱帯低気圧のベストトラックデータアーカイブInternational Best Track Archive for Climate Stewardship (IBTrACS)を、ウェブで閲覧しやすい形式に変換したものです。

最終更新日:2021-10-08